Time;durP1;ratioP1;P1;durP2;ratioP2;P2;SDS_P1;SDS_P2;PMS_P1;PMS_P2;Temp;Humidity;BMP_temperature;BMP_pressure;BME280_temperature;BME280_humidity;BME280_pressure;Samples;Min_cycle;Max_cycle;Signal;HPM_P1;HPM_P2
2022/06/16 00:01:34;;;;;;;;;;;17.80;57.70;;;;;;5008688;28;19968;-83
2022/06/16 00:04:00;;;;;;;;;;;17.80;57.80;;;;;;4996167;28;20000;-83
2022/06/16 00:06:26;;;;;;;;;;;17.70;57.50;;;;;;5011474;28;20060;-83
2022/06/16 00:08:51;;;;;;;;;;;17.50;58.00;;;;;;4993102;28;19985;-82
2022/06/16 00:11:17;;;;;;;;;;;17.60;57.70;;;;;;5006699;28;19921;-82
2022/06/16 00:13:42;;;;;;;;;;;17.50;57.90;;;;;;4993252;28;19914;-81
2022/06/16 00:16:09;;;;;;;;;;;17.50;58.00;;;;;;5009804;28;19927;-82
2022/06/16 00:18:34;;;;;;;;;;;17.60;57.30;;;;;;5011603;28;19967;-83
2022/06/16 00:21:00;;;;;;;;;;;17.60;57.70;;;;;;5009773;28;20295;-82
2022/06/16 00:23:25;;;;;;;;;;;17.60;57.60;;;;;;5011707;28;19914;-83
2022/06/16 00:25:51;;;;;;;;;;;17.60;58.10;;;;;;4997959;28;19925;-82
2022/06/16 00:28:16;;;;;;;;;;;17.40;58.90;;;;;;4999361;28;19917;-83
2022/06/16 00:30:42;;;;;;;;;;;17.30;58.90;;;;;;4994350;28;20451;-83
2022/06/16 00:33:07;;;;;;;;;;;17.30;59.40;;;;;;5013598;28;20530;-83
2022/06/16 00:35:33;;;;;;;;;;;17.30;59.00;;;;;;5013204;28;20016;-82
2022/06/16 00:37:58;;;;;;;;;;;17.40;58.50;;;;;;4998772;28;19913;-82
2022/06/16 00:40:24;;;;;;;;;;;17.50;58.50;;;;;;5013692;28;19922;-81
2022/06/16 00:42:50;;;;;;;;;;;17.50;58.20;;;;;;5013654;28;19924;-83
2022/06/16 00:45:34;;;;;;;;;;;17.60;57.80;;;;;;5010604;28;20000;-82
2022/06/16 00:47:59;;;;;;;;;;;17.60;57.80;;;;;;5006483;28;19914;-81
2022/06/16 00:50:25;;;;;;;;;;;17.40;58.60;;;;;;4995857;28;19928;-82
2022/06/16 00:52:50;;;;;;;;;;;17.40;59.00;;;;;;5010259;28;19920;-81
2022/06/16 00:55:16;;;;;;;;;;;17.40;58.50;;;;;;4993039;28;19957;-82
2022/06/16 00:57:43;;;;;;;;;;;17.40;58.60;;;;;;4990563;28;19914;-81
2022/06/16 01:00:18;;;;;;;;;;;17.10;59.90;;;;;;5012918;28;19924;-81
2022/06/16 01:02:44;;;;;;;;;;;17.20;59.30;;;;;;5009661;28;19913;-81
2022/06/16 01:05:09;;;;;;;;;;;17.20;58.90;;;;;;5006282;28;19928;-81
2022/06/16 01:07:37;;;;;;;;;;;17.10;59.30;;;;;;4993130;28;20380;-81
2022/06/16 01:10:03;;;;;;;;;;;17.10;59.40;;;;;;5009072;28;20349;-83
2022/06/16 01:15:37;;;;;;;;;;;16.80;59.90;;;;;;5009042;28;20032;-83
2022/06/16 01:18:16;;;;;;;;;;;16.70;59.80;;;;;;5009701;28;19917;-82
2022/06/16 01:21:17;;;;;;;;;;;16.60;59.90;;;;;;4992692;28;19937;-82
2022/06/16 01:23:56;;;;;;;;;;;16.70;59.90;;;;;;4938180;28;19924;-83
2022/06/16 01:26:40;;;;;;;;;;;16.60;60.50;;;;;;5002949;28;19929;-82
2022/06/16 01:29:09;;;;;;;;;;;16.60;60.50;;;;;;5001022;28;19917;-82
2022/06/16 01:31:40;;;;;;;;;;;17.00;59.20;;;;;;5002553;28;19953;-82
2022/06/16 01:34:09;;;;;;;;;;;17.00;59.00;;;;;;4996135;28;19918;-83
2022/06/16 01:36:36;;;;;;;;;;;17.10;59.40;;;;;;4996201;28;19932;-82
2022/06/16 01:39:06;;;;;;;;;;;17.10;58.60;;;;;;5010234;28;19918;-83
2022/06/16 01:41:44;;;;;;;;;;;17.30;58.10;;;;;;4989795;28;19985;-82
2022/06/16 01:44:15;;;;;;;;;;;17.10;59.10;;;;;;4997489;28;20372;-82
2022/06/16 01:46:42;;;;;;;;;;;17.00;59.40;;;;;;5007489;28;20059;-83
2022/06/16 01:49:22;;;;;;;;;;;17.10;59.00;;;;;;5015468;28;20348;-82
2022/06/16 01:52:00;;;;;;;;;;;17.10;59.10;;;;;;4988714;28;19939;-81
2022/06/16 01:54:29;;;;;;;;;;;17.10;58.90;;;;;;5009670;28;19913;-82
2022/06/16 01:56:58;;;;;;;;;;;17.20;58.60;;;;;;4994802;28;19917;-80
2022/06/16 01:59:25;;;;;;;;;;;17.10;59.80;;;;;;4994665;28;19914;-82
2022/06/16 02:01:55;;;;;;;;;;;17.00;59.40;;;;;;4994254;28;19913;-82
2022/06/16 02:04:25;;;;;;;;;;;17.00;58.90;;;;;;5009428;28;19914;-81
2022/06/16 02:06:52;;;;;;;;;;;16.80;59.70;;;;;;5015565;28;19959;-82
2022/06/16 02:09:22;;;;;;;;;;;16.80;59.90;;;;;;5005810;28;19917;-81
2022/06/16 02:11:49;;;;;;;;;;;16.70;60.60;;;;;;5008044;28;19956;-79
2022/06/16 02:14:17;;;;;;;;;;;16.70;60.40;;;;;;5014870;28;19914;-81
2022/06/16 02:16:44;;;;;;;;;;;16.80;59.50;;;;;;4996141;28;19914;-82
2022/06/16 02:19:12;;;;;;;;;;;17.00;58.80;;;;;;5001843;28;19944;-79
2022/06/16 02:21:39;;;;;;;;;;;16.80;59.70;;;;;;5018225;28;19918;-79
2022/06/16 02:24:06;;;;;;;;;;;16.90;59.40;;;;;;5008809;28;20012;-80
2022/06/16 02:26:32;;;;;;;;;;;16.80;60.00;;;;;;5011022;28;19935;-80
2022/06/16 02:29:00;;;;;;;;;;;17.00;58.30;;;;;;5010599;28;19921;-81
2022/06/16 02:31:35;;;;;;;;;;;16.90;58.90;;;;;;4990442;28;20384;-82
2022/06/16 02:34:20;;;;;;;;;;;16.80;59.40;;;;;;5021326;28;19963;-82
2022/06/16 02:36:51;;;;;;;;;;;16.70;60.10;;;;;;4996451;28;19928;-81
2022/06/16 02:39:36;;;;;;;;;;;16.90;59.40;;;;;;5013458;28;19992;-82
2022/06/16 02:42:13;;;;;;;;;;;16.80;59.00;;;;;;4996518;28;19949;-81
2022/06/16 02:44:55;;;;;;;;;;;16.50;60.00;;;;;;5005376;28;19971;-82
2022/06/16 02:47:20;;;;;;;;;;;16.50;60.50;;;;;;5021806;28;19921;-82
2022/06/16 02:49:57;;;;;;;;;;;16.80;58.80;;;;;;4991166;28;19937;-82
2022/06/16 02:52:37;;;;;;;;;;;16.90;58.90;;;;;;5007295;28;19920;-81
2022/06/16 02:55:26;;;;;;;;;;;16.80;59.50;;;;;;4993445;28;19924;-83
2022/06/16 02:57:53;;;;;;;;;;;17.00;58.10;;;;;;4996095;28;19961;-82
2022/06/16 03:00:22;;;;;;;;;;;16.90;58.30;;;;;;5012572;28;19913;-82
2022/06/16 03:02:56;;;;;;;;;;;16.80;59.10;;;;;;5007489;28;20376;-81
2022/06/16 03:05:22;;;;;;;;;;;16.50;59.40;;;;;;4994367;28;19917;-82
2022/06/16 03:07:47;;;;;;;;;;;16.50;60.00;;;;;;4995468;28;19927;-81
2022/06/16 03:10:50;;;;;;;;;;;16.70;58.80;;;;;;5001059;28;20396;-82
2022/06/16 03:13:00;;;;;;;;;;;16.70;58.60;;;;;;5010784;28;19913;-82
2022/06/16 03:15:25;;;;;;;;;;;16.50;59.10;;;;;;5000668;28;19924;-83
2022/06/16 03:17:51;;;;;;;;;;;16.60;59.40;;;;;;5011647;28;19913;-82
2022/06/16 03:20:16;;;;;;;;;;;16.60;59.00;;;;;;5013431;28;19963;-81
2022/06/16 03:22:42;;;;;;;;;;;16.40;59.20;;;;;;5012831;28;19920;-81
2022/06/16 03:25:07;;;;;;;;;;;16.50;59.50;;;;;;5012766;28;19987;-82
2022/06/16 03:27:33;;;;;;;;;;;16.50;59.80;;;;;;4994696;28;19921;-83
2022/06/16 03:29:58;;;;;;;;;;;16.50;58.90;;;;;;4997417;28;19924;-81
2022/06/16 03:32:24;;;;;;;;;;;16.60;58.50;;;;;;5006919;28;19923;-82
2022/06/16 03:34:49;;;;;;;;;;;16.60;58.40;;;;;;5000289;28;19956;-81
2022/06/16 03:37:15;;;;;;;;;;;16.30;59.20;;;;;;4998066;28;19913;-83
2022/06/16 03:39:40;;;;;;;;;;;16.40;59.10;;;;;;5013009;28;19913;-81
2022/06/16 03:42:05;;;;;;;;;;;16.50;58.80;;;;;;5010261;28;19952;-82
2022/06/16 03:44:31;;;;;;;;;;;16.30;59.70;;;;;;4997285;28;20373;-83
2022/06/16 03:46:56;;;;;;;;;;;16.20;60.40;;;;;;5006732;28;20363;-83
2022/06/16 03:49:22;;;;;;;;;;;16.20;61.10;;;;;;5003101;28;19914;-83
2022/06/16 03:51:48;;;;;;;;;;;16.50;60.30;;;;;;5011615;28;20436;-83
2022/06/16 03:54:13;;;;;;;;;;;16.30;61.60;;;;;;5011722;28;20391;-82
2022/06/16 03:56:40;;;;;;;;;;;16.30;60.40;;;;;;5009420;28;20380;-83
2022/06/16 03:59:05;;;;;;;;;;;16.20;61.20;;;;;;4995358;28;19928;-81
2022/06/16 04:01:31;;;;;;;;;;;16.00;61.50;;;;;;5000562;28;19937;-81
2022/06/16 04:03:59;;;;;;;;;;;16.00;62.30;;;;;;4997831;28;19984;-83
2022/06/16 04:06:25;;;;;;;;;;;16.00;62.00;;;;;;5009595;28;19918;-83
2022/06/16 04:08:51;;;;;;;;;;;16.00;61.40;;;;;;5021574;28;19940;-81
2022/06/16 04:11:34;;;;;;;;;;;16.10;62.00;;;;;;4998012;28;19983;-83
2022/06/16 04:14:07;;;;;;;;;;;16.00;62.80;;;;;;4994568;28;20337;-82
2022/06/16 04:16:34;;;;;;;;;;;16.20;60.40;;;;;;4994989;28;19924;-81
2022/06/16 04:19:00;;;;;;;;;;;16.10;60.90;;;;;;5011758;28;20312;-81
2022/06/16 04:21:26;;;;;;;;;;;16.00;61.50;;;;;;5010147;28;19987;-82
2022/06/16 04:23:52;;;;;;;;;;;15.80;61.00;;;;;;5011010;28;19952;-83
2022/06/16 04:26:18;;;;;;;;;;;15.70;62.50;;;;;;4991878;28;19914;-82
2022/06/16 04:28:44;;;;;;;;;;;15.70;61.80;;;;;;4995915;28;20012;-82
2022/06/16 04:31:09;;;;;;;;;;;15.60;62.80;;;;;;5005754;28;19921;-82
2022/06/16 04:33:35;;;;;;;;;;;15.60;63.40;;;;;;5013254;28;20373;-83
2022/06/16 04:36:01;;;;;;;;;;;15.60;64.00;;;;;;4994807;28;20022;-82
2022/06/16 04:38:27;;;;;;;;;;;15.70;62.60;;;;;;5002033;28;19936;-82
2022/06/16 04:40:52;;;;;;;;;;;15.70;64.20;;;;;;5006037;28;20349;-82
2022/06/16 04:43:18;;;;;;;;;;;15.70;64.30;;;;;;5000980;28;19981;-83
2022/06/16 04:45:44;;;;;;;;;;;15.80;63.60;;;;;;5010427;28;20292;-82
2022/06/16 04:48:09;;;;;;;;;;;15.70;62.60;;;;;;5005932;28;19959;-82
2022/06/16 04:50:35;;;;;;;;;;;15.90;61.40;;;;;;4990948;28;19929;-82
2022/06/16 04:53:07;;;;;;;;;;;15.90;62.70;;;;;;5013667;28;20392;-81
2022/06/16 04:55:34;;;;;;;;;;;15.80;62.50;;;;;;4992361;28;19925;-82
2022/06/16 04:58:00;;;;;;;;;;;16.00;62.00;;;;;;5008295;28;19922;-82
2022/06/16 05:00:26;;;;;;;;;;;16.00;61.70;;;;;;4993606;28;19914;-80
2022/06/16 05:02:51;;;;;;;;;;;16.00;61.70;;;;;;4991465;28;19924;-81
2022/06/16 05:05:17;;;;;;;;;;;16.00;61.70;;;;;;5011326;28;20328;-82
2022/06/16 05:07:43;;;;;;;;;;;16.10;60.70;;;;;;4992078;28;19945;-83
2022/06/16 05:10:08;;;;;;;;;;;16.20;60.60;;;;;;4997358;28;20353;-83
2022/06/16 05:12:34;;;;;;;;;;;16.10;61.30;;;;;;5019183;28;19957;-82
2022/06/16 05:14:59;;;;;;;;;;;16.20;62.20;;;;;;5008736;28;20032;-83
2022/06/16 05:17:25;;;;;;;;;;;16.30;61.40;;;;;;5012277;28;19917;-83
2022/06/16 05:19:50;;;;;;;;;;;16.30;61.70;;;;;;5007376;28;20067;-83
2022/06/16 05:22:16;;;;;;;;;;;16.50;59.90;;;;;;5009298;28;19959;-83
2022/06/16 05:24:41;;;;;;;;;;;16.50;60.00;;;;;;4993806;28;19936;-81
2022/06/16 05:27:07;;;;;;;;;;;16.50;59.90;;;;;;5001285;28;19913;-82
2022/06/16 05:29:33;;;;;;;;;;;16.30;60.60;;;;;;5010372;28;20030;-82
2022/06/16 05:31:58;;;;;;;;;;;16.30;60.50;;;;;;4999073;28;20467;-84
2022/06/16 05:34:23;;;;;;;;;;;16.50;59.80;;;;;;4992409;28;19914;-85
2022/06/16 05:36:49;;;;;;;;;;;16.50;60.00;;;;;;5000542;28;19913;-82
2022/06/16 05:39:14;;;;;;;;;;;16.40;60.20;;;;;;5019060;28;20016;-82
2022/06/16 05:41:41;;;;;;;;;;;16.50;60.10;;;;;;4996857;28;19964;-84
2022/06/16 05:44:06;;;;;;;;;;;16.50;60.20;;;;;;5007274;28;19922;-83
2022/06/16 05:46:32;;;;;;;;;;;16.40;60.60;;;;;;5011037;28;19914;-85
2022/06/16 05:48:57;;;;;;;;;;;16.50;60.30;;;;;;5000080;28;19980;-81
2022/06/16 05:51:23;;;;;;;;;;;16.50;61.10;;;;;;5015337;28;19967;-84
2022/06/16 05:53:49;;;;;;;;;;;16.60;60.20;;;;;;4995641;28;19913;-83
2022/06/16 05:56:15;;;;;;;;;;;16.70;59.70;;;;;;5012084;28;19926;-80
2022/06/16 05:58:40;;;;;;;;;;;16.60;61.10;;;;;;5014110;28;20031;-84
2022/06/16 06:01:06;;;;;;;;;;;16.60;61.20;;;;;;4996912;28;20317;-83
2022/06/16 06:03:31;;;;;;;;;;;16.80;60.20;;;;;;4992366;28;19925;-82
2022/06/16 06:06:00;;;;;;;;;;;16.70;60.20;;;;;;4992260;28;20573;-84
2022/06/16 06:16:42;;;;;;;;;;;16.80;60.20;;;;;;5026318;28;19967;-83
2022/06/16 06:19:24;;;;;;;;;;;16.80;60.40;;;;;;5004820;28;19918;-79
2022/06/16 06:22:02;;;;;;;;;;;16.70;61.10;;;;;;5011442;28;20131;-80
2022/06/16 06:24:38;;;;;;;;;;;16.60;61.60;;;;;;5011704;28;20372;-80
2022/06/16 06:27:19;;;;;;;;;;;16.80;61.00;;;;;;5014250;28;19960;-80
2022/06/16 06:29:45;;;;;;;;;;;16.70;61.20;;;;;;4998565;28;19921;-83
2022/06/16 06:32:11;;;;;;;;;;;16.70;62.40;;;;;;5007352;28;19910;-81
2022/06/16 06:34:37;;;;;;;;;;;16.80;62.30;;;;;;5021580;28;19913;-82
2022/06/16 06:37:03;;;;;;;;;;;16.90;62.10;;;;;;5004560;28;19909;-81
2022/06/16 06:39:28;;;;;;;;;;;17.00;61.70;;;;;;5015908;28;20307;-81
2022/06/16 06:41:53;;;;;;;;;;;17.10;61.30;;;;;;5024592;28;19917;-81
2022/06/16 06:44:19;;;;;;;;;;;17.10;60.60;;;;;;5008911;28;20277;-80
2022/06/16 06:46:45;;;;;;;;;;;17.20;60.00;;;;;;5007919;28;20415;-81
2022/06/16 06:49:10;;;;;;;;;;;17.20;60.70;;;;;;5020471;28;19918;-82
2022/06/16 06:51:36;;;;;;;;;;;17.20;60.30;;;;;;5017773;28;20236;-81
2022/06/16 06:54:01;;;;;;;;;;;17.30;59.50;;;;;;5018931;28;19910;-80
2022/06/16 06:56:28;;;;;;;;;;;17.40;59.60;;;;;;5013600;28;19928;-81
2022/06/16 06:58:55;;;;;;;;;;;17.30;60.60;;;;;;4997735;28;19909;-81
2022/06/16 07:01:20;;;;;;;;;;;17.40;60.30;;;;;;4996548;28;20244;-81
2022/06/16 07:03:47;;;;;;;;;;;17.50;59.70;;;;;;5020504;28;19917;-81
2022/06/16 07:06:12;;;;;;;;;;;17.50;60.30;;;;;;5001162;28;19920;-82
2022/06/16 07:08:38;;;;;;;;;;;17.50;59.70;;;;;;5014016;28;20660;-81
2022/06/16 07:11:03;;;;;;;;;;;17.40;60.60;;;;;;5009060;28;19913;-82
2022/06/16 07:13:29;;;;;;;;;;;17.50;62.00;;;;;;5011077;28;19956;-81
2022/06/16 07:15:54;;;;;;;;;;;17.60;60.90;;;;;;5012915;28;20295;-82
2022/06/16 07:18:20;;;;;;;;;;;17.60;60.50;;;;;;5009604;28;20361;-81
2022/06/16 07:20:47;;;;;;;;;;;17.60;60.00;;;;;;4994453;28;20316;-83
2022/06/16 07:23:13;;;;;;;;;;;17.70;60.50;;;;;;5006622;28;20280;-81
2022/06/16 07:25:38;;;;;;;;;;;17.70;60.20;;;;;;4995103;28;19917;-82
2022/06/16 07:28:04;;;;;;;;;;;17.70;60.30;;;;;;5004577;28;19945;-81
2022/06/16 07:30:29;;;;;;;;;;;17.90;60.30;;;;;;5002088;28;19914;-82
2022/06/16 07:32:55;;;;;;;;;;;17.90;59.00;;;;;;5019469;28;19913;-82
2022/06/16 07:35:21;;;;;;;;;;;17.90;57.50;;;;;;5001426;28;19933;-81
2022/06/16 07:37:47;;;;;;;;;;;17.70;58.50;;;;;;5004869;28;19976;-83
2022/06/16 07:40:13;;;;;;;;;;;17.70;59.50;;;;;;5020346;28;19917;-83
2022/06/16 07:42:39;;;;;;;;;;;17.90;59.00;;;;;;4993744;28;19959;-77
2022/06/16 07:45:05;;;;;;;;;;;18.00;58.20;;;;;;4997973;28;19917;-84
2022/06/16 07:47:30;;;;;;;;;;;17.90;58.50;;;;;;5013910;28;19914;-81
2022/06/16 07:49:56;;;;;;;;;;;17.90;58.30;;;;;;5001777;28;20349;-82
2022/06/16 07:52:22;;;;;;;;;;;17.80;59.00;;;;;;5002700;28;20080;-80
2022/06/16 07:54:49;;;;;;;;;;;17.90;58.90;;;;;;5018549;28;19932;-83
2022/06/16 07:57:15;;;;;;;;;;;18.10;58.10;;;;;;5000045;28;19913;-81
2022/06/16 07:59:40;;;;;;;;;;;18.10;57.90;;;;;;4999844;28;19913;-85
2022/06/16 08:02:09;;;;;;;;;;;18.20;57.10;;;;;;4993858;28;19914;-89
2022/06/16 08:04:34;;;;;;;;;;;18.40;56.90;;;;;;5002756;28;20017;-85
2022/06/16 08:07:02;;;;;;;;;;;18.40;56.40;;;;;;5014333;28;20325;-84
2022/06/16 08:09:31;;;;;;;;;;;18.40;56.80;;;;;;4992264;28;19917;-86
2022/06/16 08:12:09;;;;;;;;;;;18.40;57.00;;;;;;4996665;28;19953;-86
2022/06/16 08:14:36;;;;;;;;;;;18.40;56.40;;;;;;4992067;28;19913;-83
2022/06/16 08:17:03;;;;;;;;;;;18.50;53.70;;;;;;5014257;28;20616;-83
2022/06/16 08:19:28;;;;;;;;;;;18.60;54.40;;;;;;4999717;28;19917;-84
2022/06/16 08:21:54;;;;;;;;;;;18.50;54.50;;;;;;5004300;28;20095;-82
2022/06/16 08:24:19;;;;;;;;;;;18.60;53.20;;;;;;4999338;28;19913;-82
2022/06/16 08:26:45;;;;;;;;;;;18.50;52.70;;;;;;5003567;28;20364;-87
2022/06/16 08:29:12;;;;;;;;;;;18.70;49.90;;;;;;5003534;28;19910;-85
2022/06/16 08:31:38;;;;;;;;;;;18.80;50.40;;;;;;5015757;28;20369;-81
2022/06/16 08:34:05;;;;;;;;;;;18.70;50.80;;;;;;5008028;28;19913;-84
2022/06/16 08:36:30;;;;;;;;;;;18.80;50.90;;;;;;5016522;28;19917;-82
2022/06/16 08:38:55;;;;;;;;;;;18.60;50.20;;;;;;4996494;28;20618;-80
2022/06/16 08:41:44;;;;;;;;;;;18.60;51.50;;;;;;4993365;28;19917;-87
2022/06/16 08:44:15;;;;;;;;;;;18.60;51.10;;;;;;4997502;28;19968;-81
2022/06/16 08:46:43;;;;;;;;;;;18.90;50.10;;;;;;5011002;28;19918;-82
2022/06/16 08:49:21;;;;;;;;;;;19.00;47.80;;;;;;5012353;28;20004;-81
2022/06/16 08:52:11;;;;;;;;;;;19.00;49.80;;;;;;5007232;28;19917;-82
2022/06/16 08:54:44;;;;;;;;;;;19.00;50.60;;;;;;5010413;28;20425;-84
2022/06/16 08:57:10;;;;;;;;;;;19.10;51.30;;;;;;5011847;28;20009;-83
2022/06/16 08:59:41;;;;;;;;;;;19.10;49.20;;;;;;5015793;28;20360;-86
2022/06/16 09:02:09;;;;;;;;;;;19.30;49.20;;;;;;5003577;28;19919;-81
2022/06/16 09:04:43;;;;;;;;;;;19.40;47.60;;;;;;4999824;28;20016;-82
2022/06/16 09:07:27;;;;;;;;;;;19.30;48.50;;;;;;4996466;28;19913;-83
2022/06/16 09:12:57;;;;;;;;;;;19.40;47.70;;;;;;5008092;28;20488;-81
2022/06/16 09:15:22;;;;;;;;;;;19.50;48.30;;;;;;4985765;28;19913;-81
2022/06/16 09:18:19;;;;;;;;;;;19.50;47.10;;;;;;5012564;28;19983;-81
2022/06/16 09:20:54;;;;;;;;;;;19.50;46.60;;;;;;5009562;28;19914;-79
2022/06/16 09:23:38;;;;;;;;;;;19.50;47.00;;;;;;4992221;28;19917;-79
2022/06/16 09:26:09;;;;;;;;;;;19.40;46.40;;;;;;4993968;28;19924;-79
2022/06/16 09:28:57;;;;;;;;;;;19.40;47.60;;;;;;5011690;28;19916;-80
2022/06/16 09:31:30;;;;;;;;;;;19.60;47.90;;;;;;5013134;28;20346;-79
2022/06/16 09:34:00;;;;;;;;;;;19.60;48.60;;;;;;5002901;28;19917;-80
2022/06/16 09:36:35;;;;;;;;;;;19.50;47.90;;;;;;5013383;28;19995;-80
2022/06/16 09:39:12;;;;;;;;;;;19.50;46.70;;;;;;5012729;28;19980;-80
2022/06/16 09:44:32;;;;;;;;;;;19.60;47.90;;;;;;5013152;28;19966;-80
2022/06/16 09:47:02;;;;;;;;;;;19.70;46.40;;;;;;4995126;28;20303;-80
2022/06/16 09:49:46;;;;;;;;;;;19.80;46.50;;;;;;5018424;28;20324;-80
2022/06/16 09:52:15;;;;;;;;;;;19.90;44.80;;;;;;5010973;28;20229;-82
2022/06/16 09:54:46;;;;;;;;;;;20.00;44.80;;;;;;4980290;28;20023;-82
2022/06/16 09:57:17;;;;;;;;;;;20.10;44.90;;;;;;5008382;28;19925;-83
2022/06/16 10:00:19;;;;;;;;;;;20.10;45.70;;;;;;5010235;28;20334;-81
2022/06/16 10:02:49;;;;;;;;;;;20.00;46.30;;;;;;4976306;28;20858;-83
2022/06/16 10:05:21;;;;;;;;;;;19.90;46.30;;;;;;4994835;28;19920;-82
2022/06/16 10:07:54;;;;;;;;;;;20.00;46.10;;;;;;5001367;28;20252;-82
2022/06/16 10:10:19;;;;;;;;;;;20.00;45.80;;;;;;5016825;28;19917;-82
2022/06/16 10:12:50;;;;;;;;;;;20.10;45.30;;;;;;5020557;28;20652;-82
2022/06/16 10:15:16;;;;;;;;;;;20.30;45.30;;;;;;5027608;28;19932;-84
2022/06/16 10:17:43;;;;;;;;;;;20.30;45.20;;;;;;5008070;28;20396;-84
2022/06/16 10:20:09;;;;;;;;;;;20.30;45.90;;;;;;5024047;28;19952;-84
2022/06/16 10:22:36;;;;;;;;;;;20.30;43.80;;;;;;5007044;28;20081;-85
2022/06/16 10:25:04;;;;;;;;;;;20.40;42.70;;;;;;5006021;28;19921;-84
2022/06/16 10:27:35;;;;;;;;;;;20.30;43.50;;;;;;5002962;28;19913;-83
2022/06/16 10:30:01;;;;;;;;;;;20.30;43.80;;;;;;5004455;28;19921;-85
2022/06/16 10:32:39;;;;;;;;;;;20.40;44.80;;;;;;5000852;28;19913;-84
2022/06/16 10:35:06;;;;;;;;;;;20.60;43.80;;;;;;5005525;28;19918;-84
2022/06/16 10:37:31;;;;;;;;;;;20.50;43.90;;;;;;5017233;28;19993;-81
2022/06/16 10:40:15;;;;;;;;;;;20.60;44.00;;;;;;5018118;28;19965;-84
2022/06/16 10:42:49;;;;;;;;;;;20.70;44.80;;;;;;4999377;28;19917;-83
2022/06/16 10:45:20;;;;;;;;;;;20.60;45.60;;;;;;5019528;28;19925;-83
2022/06/16 10:47:48;;;;;;;;;;;20.60;45.20;;;;;;5001501;28;19940;-83
2022/06/16 10:50:23;;;;;;;;;;;20.80;45.80;;;;;;5000541;28;19913;-84
2022/06/16 10:52:56;;;;;;;;;;;20.80;45.80;;;;;;5018723;28;19925;-83
2022/06/16 10:55:23;;;;;;;;;;;20.80;45.60;;;;;;5006814;28;20411;-84
2022/06/16 10:57:57;;;;;;;;;;;20.90;45.40;;;;;;5006072;28;19940;-85
2022/06/16 11:00:24;;;;;;;;;;;20.90;45.10;;;;;;5006783;28;20261;-84
2022/06/16 11:02:55;;;;;;;;;;;21.10;44.10;;;;;;5016558;28;20054;-84
2022/06/16 11:05:21;;;;;;;;;;;21.00;44.90;;;;;;4994206;28;19914;-85
2022/06/16 11:07:46;;;;;;;;;;;20.90;45.10;;;;;;5015912;28;19940;-85
2022/06/16 11:10:14;;;;;;;;;;;21.00;45.30;;;;;;4996390;28;19929;-85
2022/06/16 11:12:41;;;;;;;;;;;21.10;45.40;;;;;;5005995;28;19953;-84
2022/06/16 11:15:16;;;;;;;;;;;21.20;44.70;;;;;;5015666;28;20009;-85
2022/06/16 11:17:46;;;;;;;;;;;21.20;44.10;;;;;;5016614;28;19917;-84
2022/06/16 11:20:26;;;;;;;;;;;21.20;43.90;;;;;;5017476;28;20293;-85
2022/06/16 11:22:53;;;;;;;;;;;21.30;43.60;;;;;;5018923;28;20000;-85
2022/06/16 11:25:28;;;;;;;;;;;21.30;44.10;;;;;;5035503;28;19905;-85
2022/06/16 11:28:01;;;;;;;;;;;21.30;45.20;;;;;;5035183;28;19918;-87
2022/06/16 11:30:33;;;;;;;;;;;21.20;45.50;;;;;;5003399;28;20344;-85
2022/06/16 11:32:58;;;;;;;;;;;21.30;44.70;;;;;;4997641;28;19918;-84
2022/06/16 11:35:33;;;;;;;;;;;21.50;45.00;;;;;;5009926;28;19920;-83
2022/06/16 11:38:02;;;;;;;;;;;21.50;44.80;;;;;;5013973;28;19917;-85
2022/06/16 11:40:39;;;;;;;;;;;21.50;44.70;;;;;;5012319;28;20395;-83
2022/06/16 11:43:23;;;;;;;;;;;21.50;44.70;;;;;;4996935;28;19996;-84
2022/06/16 11:45:55;;;;;;;;;;;21.50;45.50;;;;;;5017584;28;19952;-84
2022/06/16 11:48:26;;;;;;;;;;;21.40;45.30;;;;;;5017423;28;19913;-86
2022/06/16 11:50:58;;;;;;;;;;;21.50;45.20;;;;;;5000479;28;20429;-85
2022/06/16 11:53:29;;;;;;;;;;;21.50;45.60;;;;;;5017167;28;19924;-85
2022/06/16 11:55:57;;;;;;;;;;;21.60;46.10;;;;;;5000076;28;20368;-85
2022/06/16 11:58:41;;;;;;;;;;;21.70;44.40;;;;;;5020704;28;19910;-85
2022/06/16 12:01:14;;;;;;;;;;;21.60;45.30;;;;;;5002765;28;19936;-80
2022/06/16 12:03:46;;;;;;;;;;;21.70;44.60;;;;;;4994951;28;19918;-82
2022/06/16 12:06:14;;;;;;;;;;;21.80;45.20;;;;;;4996549;28;19967;-87
2022/06/16 12:08:46;;;;;;;;;;;22.00;44.90;;;;;;4998553;28;19996;-85
2022/06/16 12:11:24;;;;;;;;;;;22.00;44.80;;;;;;4997010;28;19941;-86
2022/06/16 12:14:19;;;;;;;;;;;22.10;45.80;;;;;;4996244;28;19913;-85
2022/06/16 12:16:52;;;;;;;;;;;22.10;44.60;;;;;;4985154;28;19929;-84
2022/06/16 12:19:32;;;;;;;;;;;22.10;44.80;;;;;;5005662;28;19935;-84
2022/06/16 12:22:16;;;;;;;;;;;22.10;44.20;;;;;;5014357;28;19921;-85
2022/06/16 12:24:42;;;;;;;;;;;22.10;44.80;;;;;;5003151;28;19957;-84
2022/06/16 12:27:14;;;;;;;;;;;22.20;45.30;;;;;;5012059;28;19914;-84
2022/06/16 12:30:01;;;;;;;;;;;22.20;44.10;;;;;;5004561;28;19914;-84
2022/06/16 12:32:34;;;;;;;;;;;22.20;44.00;;;;;;5003517;28;19944;-84
2022/06/16 12:35:00;;;;;;;;;;;22.20;43.70;;;;;;5013395;28;20439;-85
2022/06/16 12:37:28;;;;;;;;;;;22.20;44.00;;;;;;4996272;28;19918;-85
2022/06/16 12:39:57;;;;;;;;;;;22.20;43.10;;;;;;4997841;28;19975;-84
2022/06/16 12:42:25;;;;;;;;;;;22.30;43.70;;;;;;4989414;28;20015;-85
2022/06/16 12:45:06;;;;;;;;;;;22.30;43.00;;;;;;5017250;28;19913;-85
2022/06/16 12:47:38;;;;;;;;;;;22.40;44.40;;;;;;5014207;28;19913;-85
2022/06/16 12:50:07;;;;;;;;;;;22.40;44.40;;;;;;4995935;28;19914;-85
2022/06/16 12:52:42;;;;;;;;;;;22.30;43.80;;;;;;5016820;28;19984;-86
2022/06/16 12:55:08;;;;;;;;;;;22.40;44.60;;;;;;4997974;28;19933;-85
2022/06/16 12:57:42;;;;;;;;;;;22.50;44.80;;;;;;4995444;28;19917;-85
2022/06/16 13:00:16;;;;;;;;;;;22.40;44.90;;;;;;5014560;28;20013;-84
2022/06/16 13:02:53;;;;;;;;;;;22.40;45.60;;;;;;4995598;28;19945;-85
2022/06/16 13:05:20;;;;;;;;;;;22.40;45.60;;;;;;4996525;28;19980;-84
2022/06/16 13:07:51;;;;;;;;;;;22.50;45.70;;;;;;4996802;28;19917;-85
2022/06/16 13:10:17;;;;;;;;;;;22.50;45.20;;;;;;4990049;28;19913;-81
2022/06/16 13:12:50;;;;;;;;;;;22.40;44.80;;;;;;4993950;28;19913;-82
2022/06/16 13:15:18;;;;;;;;;;;22.40;43.50;;;;;;5009644;28;19933;-82
2022/06/16 13:17:49;;;;;;;;;;;22.40;44.60;;;;;;5002262;28;20001;-81
2022/06/16 13:20:17;;;;;;;;;;;22.30;44.20;;;;;;5003940;28;19996;-81
2022/06/16 13:22:44;;;;;;;;;;;22.60;43.60;;;;;;5003444;28;19940;-82
2022/06/16 13:25:29;;;;;;;;;;;22.60;44.20;;;;;;5005661;28;20009;-80
2022/06/16 13:27:55;;;;;;;;;;;22.50;44.50;;;;;;5006760;28;19924;-81
2022/06/16 13:30:30;;;;;;;;;;;22.80;44.20;;;;;;5006561;28;19989;-79
2022/06/16 13:33:17;;;;;;;;;;;22.80;44.10;;;;;;4995771;28;19921;-80
2022/06/16 13:35:47;;;;;;;;;;;22.80;43.90;;;;;;5006941;28;20612;-80
2022/06/16 13:38:13;;;;;;;;;;;22.90;42.50;;;;;;5005972;28;19913;-80
2022/06/16 13:40:43;;;;;;;;;;;22.90;44.00;;;;;;4997048;28;20025;-81
2022/06/16 13:43:19;;;;;;;;;;;22.70;44.70;;;;;;4999751;28;19976;-82
2022/06/16 13:45:52;;;;;;;;;;;22.90;44.40;;;;;;5014678;28;19914;-84
2022/06/16 13:48:37;;;;;;;;;;;23.00;43.50;;;;;;5008459;28;19913;-85
2022/06/16 13:51:04;;;;;;;;;;;23.10;43.30;;;;;;5000333;28;19979;-85
2022/06/16 13:53:30;;;;;;;;;;;23.10;43.60;;;;;;4996721;28;19994;-83
2022/06/16 13:55:57;;;;;;;;;;;23.00;44.50;;;;;;5015335;28;19989;-84
2022/06/16 13:58:25;;;;;;;;;;;23.00;44.20;;;;;;5000151;28;19969;-84
2022/06/16 14:01:03;;;;;;;;;;;23.00;45.20;;;;;;5021990;28;19976;-85
2022/06/16 14:03:32;;;;;;;;;;;23.00;45.10;;;;;;5010165;28;19921;-86
2022/06/16 14:06:08;;;;;;;;;;;23.10;44.20;;;;;;5009331;28;19913;-86
2022/06/16 14:08:43;;;;;;;;;;;23.10;43.20;;;;;;5022163;28;19920;-87
2022/06/16 14:11:17;;;;;;;;;;;23.20;43.20;;;;;;5011664;28;19913;-85
2022/06/16 14:14:06;;;;;;;;;;;23.10;43.50;;;;;;5004808;28;20226;-85
2022/06/16 14:16:43;;;;;;;;;;;23.00;44.50;;;;;;5000416;28;19921;-85
2022/06/16 14:19:11;;;;;;;;;;;23.20;43.50;;;;;;5010159;28;19948;-86
2022/06/16 14:21:46;;;;;;;;;;;23.60;42.30;;;;;;5004725;28;19997;-86
2022/06/16 14:24:19;;;;;;;;;;;23.60;43.40;;;;;;5002128;28;20021;-84
2022/06/16 14:26:45;;;;;;;;;;;23.70;42.80;;;;;;5002236;28;19925;-85
2022/06/16 14:29:18;;;;;;;;;;;23.50;43.00;;;;;;5004197;28;19916;-86
2022/06/16 14:31:52;;;;;;;;;;;23.50;42.60;;;;;;5024626;28;19992;-84
2022/06/16 14:34:17;;;;;;;;;;;23.50;43.60;;;;;;5004843;28;19971;-86
2022/06/16 14:36:49;;;;;;;;;;;23.60;43.10;;;;;;5005119;28;20609;-85
2022/06/16 14:39:19;;;;;;;;;;;23.50;42.60;;;;;;5001021;28;19914;-87
2022/06/16 14:41:46;;;;;;;;;;;23.60;42.90;;;;;;5000375;28;19984;-88
2022/06/16 14:44:14;;;;;;;;;;;23.80;42.00;;;;;;5001611;28;19976;-84
2022/06/16 14:46:58;;;;;;;;;;;24.00;42.10;;;;;;5002886;28;19925;-86
2022/06/16 14:49:31;;;;;;;;;;;23.80;42.50;;;;;;5015106;28;20308;-85